Time;durP1;ratioP1;P1;durP2;ratioP2;P2;SDS_P1;SDS_P2;PMS_P1;PMS_P2;Temp;Humidity;BMP_temperature;BMP_pressure;BME280_temperature;BME280_humidity;BME280_pressure;Samples;Min_cycle;Max_cycle;Signal;HPM_P1;HPM_P2
2023/01/20 00:01:33;;;;;;;12.97;5.57;;;1.30;99.90;;;;;;5050947;28;20417;-73
2023/01/20 00:03:58;;;;;;;10.40;5.30;;;1.30;99.90;;;;;;5052178;28;20466;-72
2023/01/20 00:06:28;;;;;;;13.90;6.30;;;1.30;99.90;;;;;;5051939;28;20894;-74
2023/01/20 00:08:56;;;;;;;12.57;6.67;;;1.30;99.90;;;;;;5052114;28;20206;-74
2023/01/20 00:11:21;;;;;;;7.00;5.57;;;1.30;99.90;;;;;;5070610;28;20453;-72
2023/01/20 00:13:47;;;;;;;9.93;5.70;;;1.20;99.90;;;;;;5072331;28;21021;-72
2023/01/20 00:16:13;;;;;;;8.80;6.50;;;1.20;99.90;;;;;;5071683;28;20197;-71
2023/01/20 00:18:39;;;;;;;10.90;6.37;;;1.20;99.90;;;;;;5071963;28;20416;-72
2023/01/20 00:21:08;;;;;;;9.23;5.97;;;1.10;99.90;;;;;;5072148;28;20180;-72
2023/01/20 00:23:34;;;;;;;11.63;6.23;;;1.10;99.90;;;;;;5070705;28;20499;-72
2023/01/20 00:26:08;;;;;;;13.73;6.80;;;1.10;99.90;;;;;;5070437;28;20438;-73
2023/01/20 00:28:34;;;;;;;11.80;6.33;;;1.10;99.90;;;;;;5071556;28;20232;-71
2023/01/20 00:31:15;;;;;;;10.13;5.73;;;1.20;99.90;;;;;;5071466;28;20403;-73
2023/01/20 00:33:40;;;;;;;8.10;6.33;;;1.20;99.90;;;;;;5067572;28;20412;-73
2023/01/20 00:36:07;;;;;;;8.53;5.57;;;1.30;99.90;;;;;;5050286;28;20471;-73
2023/01/20 00:38:33;;;;;;;11.80;6.87;;;1.40;99.90;;;;;;5051528;28;20201;-74
2023/01/20 00:40:58;;;;;;;9.80;5.77;;;1.40;99.90;;;;;;5051684;28;20420;-73
2023/01/20 00:43:24;;;;;;;11.90;6.37;;;1.50;99.90;;;;;;5052075;28;20901;-75
2023/01/20 00:45:49;;;;;;;13.00;6.63;;;1.50;99.90;;;;;;5056502;28;20182;-72
2023/01/20 00:48:15;;;;;;;16.07;6.63;;;1.60;99.90;;;;;;5071548;28;20194;-71
2023/01/20 00:50:41;;;;;;;8.97;5.40;;;1.50;99.90;;;;;;5071826;28;20162;-73
2023/01/20 00:53:06;;;;;;;13.57;6.53;;;1.60;99.90;;;;;;5071796;28;20167;-73
2023/01/20 00:55:32;;;;;;;10.43;5.23;;;1.60;99.90;;;;;;5071250;28;20488;-74
2023/01/20 00:57:57;;;;;;;14.70;7.63;;;1.60;99.90;;;;;;5062731;28;20241;-73
2023/01/20 01:00:23;;;;;;;10.40;7.13;;;1.60;99.90;;;;;;5051431;28;20631;-73
2023/01/20 01:02:48;;;;;;;12.03;5.77;;;1.60;99.90;;;;;;5051305;28;20202;-73
2023/01/20 01:05:14;;;;;;;25.33;7.20;;;1.60;99.90;;;;;;5051205;28;20250;-73
2023/01/20 01:07:39;;;;;;;10.30;6.00;;;1.60;99.90;;;;;;5051357;28;20273;-74
2023/01/20 01:10:05;;;;;;;12.67;6.70;;;1.60;99.90;;;;;;5062981;28;20174;-71
2023/01/20 01:12:31;;;;;;;10.47;6.50;;;1.60;99.90;;;;;;5071434;28;20176;-71
2023/01/20 01:14:56;;;;;;;14.53;7.20;;;1.70;99.90;;;;;;5085856;28;20446;-73
2023/01/20 01:17:22;;;;;;;9.37;6.73;;;1.60;99.90;;;;;;5085920;28;20197;-73
2023/01/20 01:19:50;;;;;;;10.93;6.73;;;1.70;99.90;;;;;;5071518;28;20767;-73
2023/01/20 01:22:16;;;;;;;15.00;7.30;;;1.70;99.90;;;;;;5056643;28;20834;-73
2023/01/20 01:24:45;;;;;;;10.47;6.03;;;1.70;99.90;;;;;;5051073;28;20406;-73
2023/01/20 01:27:11;;;;;;;11.77;6.10;;;1.70;99.90;;;;;;5051244;28;20756;-73
2023/01/20 01:29:36;;;;;;;13.37;6.63;;;1.60;99.90;;;;;;5051091;28;20508;-73
2023/01/20 01:32:02;;;;;;;12.53;6.00;;;1.60;99.90;;;;;;5051096;28;20162;-71
2023/01/20 01:34:28;;;;;;;10.00;7.53;;;1.70;99.90;;;;;;5051307;28;20175;-72
2023/01/20 01:36:53;;;;;;;9.77;5.93;;;1.70;99.90;;;;;;5070372;28;20181;-74
2023/01/20 01:39:19;;;;;;;16.07;6.03;;;1.70;99.90;;;;;;5065636;28;20196;-74
2023/01/20 01:41:44;;;;;;;10.37;5.80;;;1.70;99.90;;;;;;5062726;28;20171;-74
2023/01/20 01:44:12;;;;;;;12.03;6.80;;;1.80;99.90;;;;;;5073720;28;20174;-71
2023/01/20 01:46:38;;;;;;;10.23;6.57;;;1.80;99.90;;;;;;5074175;28;20269;-74
2023/01/20 01:49:08;;;;;;;12.00;5.80;;;1.80;99.90;;;;;;5074737;28;20412;-74
2023/01/20 01:51:40;;;;;;;14.20;6.23;;;1.70;99.90;;;;;;5067050;28;20547;-74
2023/01/20 01:54:12;;;;;;;10.70;5.10;;;1.70;99.90;;;;;;5054784;28;20465;-74
2023/01/20 01:56:41;;;;;;;10.73;6.00;;;1.60;99.90;;;;;;5054423;28;20422;-74
2023/01/20 01:59:07;;;;;;;11.90;6.07;;;1.60;99.90;;;;;;5055543;28;20441;-74
2023/01/20 02:01:35;;;;;;;12.30;6.23;;;1.60;99.90;;;;;;5054400;28;20504;-74
2023/01/20 02:04:10;;;;;;;13.30;7.30;;;1.50;99.90;;;;;;5066656;28;20420;-73
2023/01/20 02:06:39;;;;;;;12.53;6.97;;;1.50;99.90;;;;;;5058971;28;20420;-74
2023/01/20 02:09:05;;;;;;;14.43;7.37;;;1.40;99.90;;;;;;5054390;28;20531;-73
2023/01/20 02:11:36;;;;;;;12.10;6.97;;;1.50;99.90;;;;;;5054324;28;20416;-72
2023/01/20 02:14:02;;;;;;;7.77;5.87;;;1.40;99.90;;;;;;5052909;28;20417;-72
2023/01/20 02:16:48;;;;;;;11.00;6.03;;;1.40;99.90;;;;;;5064729;28;20538;-73
2023/01/20 02:19:34;;;;;;;10.97;7.40;;;1.40;99.90;;;;;;5072499;28;20534;-73
2023/01/20 02:22:23;;;;;;;11.00;5.90;;;1.30;99.90;;;;;;5074145;28;20407;-73
2023/01/20 02:25:29;;;;;;;11.77;6.53;;;1.30;99.90;;;;;;5073827;28;20424;-73
2023/01/20 02:28:23;;;;;;;14.77;5.73;;;1.40;99.90;;;;;;5063409;28;20507;-73
2023/01/20 02:31:35;;;;;;;13.17;5.80;;;1.30;99.90;;;;;;5053914;28;20412;-73
2023/01/20 02:34:28;;;;;;;15.53;7.00;;;1.20;99.90;;;;;;5053537;28;20416;-73
2023/01/20 02:36:57;;;;;;;10.90;7.10;;;1.30;99.90;;;;;;5053801;28;20401;-73
2023/01/20 02:39:55;;;;;;;13.30;7.13;;;1.30;99.90;;;;;;5056214;28;20930;-73
2023/01/20 02:42:26;;;;;;;30.00;12.20;;;1.30;99.90;;;;;;5073177;28;20465;-73
2023/01/20 02:44:54;;;;;;;9.67;6.70;;;1.40;99.90;;;;;;5073273;28;20400;-73
2023/01/20 02:47:25;;;;;;;11.70;7.50;;;1.40;99.90;;;;;;5073504;28;20554;-73
2023/01/20 02:50:03;;;;;;;15.03;8.23;;;1.50;99.90;;;;;;5073525;28;20405;-73
2023/01/20 02:52:33;;;;;;;15.03;7.80;;;1.60;99.90;;;;;;5063061;28;20417;-73
2023/01/20 02:55:04;;;;;;;14.00;8.23;;;1.70;99.90;;;;;;5053287;28;20430;-73
2023/01/20 02:57:42;;;;;;;12.93;7.30;;;1.70;99.90;;;;;;5069909;28;20471;-71
2023/01/20 03:00:14;;;;;;;13.87;8.30;;;1.70;99.90;;;;;;5073423;28;20399;-72
2023/01/20 03:02:42;;;;;;;11.30;6.80;;;1.70;99.90;;;;;;5072237;28;20959;-72
2023/01/20 03:05:13;;;;;;;12.90;8.00;;;1.70;99.90;;;;;;5072765;28;20420;-72
2023/01/20 03:07:42;;;;;;;9.83;5.83;;;1.60;99.90;;;;;;5073031;28;20470;-72
2023/01/20 03:10:13;;;;;;;12.77;7.70;;;1.60;99.90;;;;;;5073259;28;20793;-72
2023/01/20 03:12:46;;;;;;;16.77;7.63;;;1.60;99.90;;;;;;5073089;28;20466;-75
2023/01/20 03:15:13;;;;;;;12.27;8.50;;;1.70;99.90;;;;;;5072687;28;20396;-74
2023/01/20 03:17:39;;;;;;;11.93;6.90;;;1.70;99.90;;;;;;5072164;28;20444;-73
2023/01/20 03:20:05;;;;;;;13.13;9.00;;;1.80;99.90;;;;;;5071004;28;20514;-74
2023/01/20 03:22:31;;;;;;;13.37;7.17;;;1.80;99.90;;;;;;5072091;28;20476;-73
2023/01/20 03:24:58;;;;;;;27.47;13.27;;;1.90;99.90;;;;;;5065329;28;20434;-73
2023/01/20 03:27:25;;;;;;;13.27;8.07;;;2.00;99.90;;;;;;5052698;28;20491;-74
2023/01/20 03:29:50;;;;;;;13.57;9.10;;;2.00;99.90;;;;;;5052778;28;20406;-73
2023/01/20 03:32:18;;;;;;;13.80;8.50;;;2.00;99.90;;;;;;5052787;28;20731;-73
2023/01/20 03:34:44;;;;;;;11.23;8.37;;;2.00;99.90;;;;;;5055327;28;20173;-73
2023/01/20 03:37:11;;;;;;;13.70;7.70;;;2.00;99.90;;;;;;5072685;28;20941;-72
2023/01/20 03:39:38;;;;;;;39.40;20.27;;;2.10;99.90;;;;;;5072497;28;20531;-72
2023/01/20 03:42:09;;;;;;;16.40;8.50;;;2.10;99.90;;;;;;5072550;28;21202;-74
2023/01/20 03:45:06;;;;;;;13.43;8.87;;;2.20;99.90;;;;;;5071044;28;20412;-74
2023/01/20 03:47:49;;;;;;;10.30;7.17;;;2.20;99.90;;;;;;5060567;28;20864;-73
2023/01/20 03:50:23;;;;;;;19.40;7.00;;;2.20;99.90;;;;;;5052659;28;20420;-73
2023/01/20 03:53:12;;;;;;;13.07;7.47;;;2.20;99.90;;;;;;5052346;28;20487;-74
2023/01/20 03:56:04;;;;;;;15.57;7.77;;;2.10;99.90;;;;;;5052143;28;20394;-75
2023/01/20 03:58:35;;;;;;;10.37;5.63;;;2.10;99.90;;;;;;5055582;28;20855;-74
2023/01/20 04:01:04;;;;;;;8.80;6.77;;;2.00;99.90;;;;;;5071762;28;21006;-71
2023/01/20 04:03:32;;;;;;;14.43;6.87;;;2.00;99.90;;;;;;5071530;28;20503;-74
2023/01/20 04:06:00;;;;;;;15.07;7.20;;;2.00;99.90;;;;;;5071069;28;20417;-74
2023/01/20 04:08:32;;;;;;;13.80;7.33;;;2.00;99.90;;;;;;5071949;28;20474;-74
2023/01/20 04:10:59;;;;;;;10.40;6.43;;;2.00;99.90;;;;;;5062940;28;20487;-74
2023/01/20 04:13:25;;;;;;;16.50;7.77;;;2.00;99.90;;;;;;5052025;28;20417;-73
2023/01/20 04:15:51;;;;;;;16.53;7.37;;;2.00;99.90;;;;;;5051781;28;20417;-73
2023/01/20 04:18:19;;;;;;;11.80;7.33;;;2.10;99.90;;;;;;5051836;28;20179;-73
2023/01/20 04:20:59;;;;;;;12.17;6.00;;;2.20;99.90;;;;;;5052009;28;20198;-74
2023/01/20 04:23:45;;;;;;;12.80;7.20;;;2.20;99.90;;;;;;5062551;28;20514;-74
2023/01/20 04:26:11;;;;;;;12.10;7.97;;;2.30;99.90;;;;;;5071112;28;20438;-75
2023/01/20 04:28:36;;;;;;;17.67;8.00;;;2.40;99.90;;;;;;5071000;28;20826;-75
2023/01/20 04:31:02;;;;;;;17.27;8.83;;;2.40;99.90;;;;;;5065673;28;20179;-73
2023/01/20 04:33:27;;;;;;;13.67;7.83;;;2.40;99.90;;;;;;5051853;28;20224;-74
2023/01/20 04:35:53;;;;;;;13.30;7.50;;;2.50;99.90;;;;;;5051458;28;20162;-72
2023/01/20 04:38:18;;;;;;;14.00;7.10;;;2.50;99.90;;;;;;5050388;28;20206;-71
2023/01/20 04:40:44;;;;;;;13.20;6.70;;;2.60;99.90;;;;;;5051673;28;20178;-73
2023/01/20 04:43:10;;;;;;;22.07;8.50;;;2.60;99.90;;;;;;5051725;28;20170;-71
2023/01/20 04:45:36;;;;;;;14.77;8.70;;;2.60;99.90;;;;;;5051387;28;20575;-72
2023/01/20 04:48:06;;;;;;;11.60;6.97;;;2.50;99.90;;;;;;5051559;28;20449;-74
2023/01/20 04:50:31;;;;;;;10.97;6.87;;;2.50;99.90;;;;;;5051707;28;20163;-74
2023/01/20 04:52:57;;;;;;;10.30;7.60;;;2.50;99.90;;;;;;5051503;28;20443;-74
2023/01/20 04:55:22;;;;;;;13.97;7.80;;;2.40;99.90;;;;;;5051338;28;20165;-74
2023/01/20 04:57:48;;;;;;;10.30;6.23;;;2.20;99.90;;;;;;5051547;28;20189;-74
2023/01/20 05:00:19;;;;;;;13.40;7.50;;;2.20;99.90;;;;;;5051654;28;20170;-74
2023/01/20 05:02:45;;;;;;;14.17;7.77;;;2.10;99.90;;;;;;5069644;28;20595;-75
2023/01/20 05:05:12;;;;;;;12.07;7.07;;;2.10;99.90;;;;;;5070947;28;20401;-75
2023/01/20 05:07:37;;;;;;;18.70;8.80;;;2.00;99.90;;;;;;5071277;28;20565;-74
2023/01/20 05:10:03;;;;;;;16.37;8.30;;;2.00;99.90;;;;;;5071598;28;20487;-73
2023/01/20 05:12:28;;;;;;;10.43;6.90;;;2.00;99.90;;;;;;5052885;28;20216;-74
2023/01/20 05:14:54;;;;;;;11.90;7.17;;;2.00;99.90;;;;;;5051104;28;20167;-73
2023/01/20 05:17:19;;;;;;;15.17;8.20;;;1.90;99.90;;;;;;5055127;28;20210;-73
2023/01/20 05:19:45;;;;;;;14.43;8.03;;;2.00;99.90;;;;;;5055300;28;20223;-73
2023/01/20 05:22:10;;;;;;;11.57;6.97;;;1.90;99.90;;;;;;5070712;28;20174;-73
2023/01/20 05:24:36;;;;;;;14.40;7.90;;;1.90;99.90;;;;;;5074846;28;20245;-73
2023/01/20 05:27:02;;;;;;;12.63;7.97;;;1.80;99.90;;;;;;5075025;28;20558;-73
2023/01/20 05:29:28;;;;;;;14.10;7.23;;;1.60;99.90;;;;;;5075228;28;20180;-73
2023/01/20 05:31:54;;;;;;;15.20;7.30;;;1.40;99.90;;;;;;5075110;28;20165;-72
2023/01/20 05:34:19;;;;;;;10.00;6.77;;;1.30;99.90;;;;;;5059457;28;20953;-74
2023/01/20 05:36:45;;;;;;;10.37;6.40;;;1.20;99.90;;;;;;5054920;28;20419;-74
2023/01/20 05:39:10;;;;;;;13.03;8.00;;;1.30;99.90;;;;;;5054835;28;20193;-74
2023/01/20 05:41:36;;;;;;;9.20;5.57;;;1.30;99.90;;;;;;5054839;28;20167;-74
2023/01/20 05:44:01;;;;;;;14.33;7.40;;;1.20;99.90;;;;;;5054792;28;20159;-73
2023/01/20 05:46:27;;;;;;;14.43;6.93;;;1.30;99.90;;;;;;5069028;28;20181;-73
2023/01/20 05:48:52;;;;;;;10.67;6.37;;;1.10;99.90;;;;;;5061796;28;20241;-72
2023/01/20 05:51:18;;;;;;;10.60;7.17;;;1.20;99.90;;;;;;5054789;28;20212;-73
2023/01/20 05:53:44;;;;;;;9.73;5.97;;;1.20;99.90;;;;;;5055353;28;20174;-74
2023/01/20 05:56:11;;;;;;;9.00;5.37;;;1.10;99.90;;;;;;5054324;28;20167;-73
2023/01/20 05:58:37;;;;;;;10.20;6.53;;;1.10;99.90;;;;;;5071845;28;20630;-73
2023/01/20 06:01:07;;;;;;;14.63;5.43;;;1.10;99.90;;;;;;5074284;28;20510;-73
2023/01/20 06:03:33;;;;;;;12.17;6.37;;;1.00;99.90;;;;;;5074510;28;20254;-73
2023/01/20 06:06:04;;;;;;;12.33;6.30;;;1.00;99.90;;;;;;5074208;28;20533;-74
2023/01/20 06:08:30;;;;;;;10.33;6.20;;;0.90;99.90;;;;;;5058294;28;20738;-73
2023/01/20 06:10:55;;;;;;;16.00;6.67;;;0.90;99.90;;;;;;5054538;28;20433;-75
2023/01/20 06:13:21;;;;;;;7.17;4.30;;;0.90;99.90;;;;;;5065195;28;20758;-74
2023/01/20 06:15:54;;;;;;;8.50;5.40;;;0.80;99.90;;;;;;5073955;28;20185;-74
2023/01/20 06:18:20;;;;;;;11.60;6.07;;;0.80;99.90;;;;;;5074234;28;20194;-75
2023/01/20 06:20:46;;;;;;;6.93;4.57;;;0.80;99.90;;;;;;5054698;28;20431;-75
2023/01/20 06:23:12;;;;;;;7.60;5.03;;;0.80;99.90;;;;;;5052789;28;20928;-75
2023/01/20 06:25:38;;;;;;;8.77;5.60;;;0.70;99.90;;;;;;5053714;28;20171;-72
2023/01/20 06:28:04;;;;;;;12.13;5.70;;;0.70;99.90;;;;;;5053032;28;20543;-72
2023/01/20 06:30:30;;;;;;;8.47;6.17;;;0.70;99.90;;;;;;5054467;28;20496;-71
2023/01/20 06:32:56;;;;;;;12.30;7.20;;;0.70;99.90;;;;;;5074007;28;20170;-73
2023/01/20 06:35:22;;;;;;;12.37;8.47;;;0.70;99.90;;;;;;5073722;28;20199;-74
2023/01/20 06:37:48;;;;;;;8.60;5.03;;;0.80;99.90;;;;;;5073602;28;20885;-72
2023/01/20 06:40:14;;;;;;;12.07;5.70;;;0.90;99.90;;;;;;5073809;28;20562;-72
2023/01/20 06:42:40;;;;;;;11.27;6.70;;;1.00;99.90;;;;;;5073132;28;20249;-73
2023/01/20 06:45:06;;;;;;;15.60;7.60;;;1.00;99.90;;;;;;5073485;28;20408;-72
2023/01/20 06:47:31;;;;;;;11.73;5.70;;;1.10;99.90;;;;;;5073573;28;20240;-74
2023/01/20 06:49:57;;;;;;;11.03;6.40;;;1.20;99.90;;;;;;5066763;28;20930;-72
2023/01/20 06:52:22;;;;;;;10.03;6.13;;;1.10;99.90;;;;;;5054767;28;20182;-73
2023/01/20 06:54:48;;;;;;;13.40;7.40;;;1.20;99.90;;;;;;5058673;28;20175;-73
2023/01/20 06:57:13;;;;;;;12.27;8.00;;;1.30;99.90;;;;;;5061539;28;20277;-73
2023/01/20 06:59:39;;;;;;;12.30;6.27;;;1.30;99.90;;;;;;5063748;28;20262;-72
2023/01/20 07:02:05;;;;;;;9.27;6.30;;;1.40;99.90;;;;;;5073343;28;20171;-73
2023/01/20 07:04:30;;;;;;;14.13;7.40;;;1.50;99.90;;;;;;5073092;28;20177;-73
2023/01/20 07:06:56;;;;;;;6.83;6.07;;;1.60;99.90;;;;;;5071273;28;20408;-72
2023/01/20 07:09:21;;;;;;;12.40;6.90;;;1.70;99.90;;;;;;5073179;28;20170;-73
2023/01/20 07:11:47;;;;;;;13.47;9.13;;;1.90;99.90;;;;;;5073219;28;20182;-73
2023/01/20 07:14:12;;;;;;;14.43;7.77;;;2.00;99.90;;;;;;5071637;28;20181;-73
2023/01/20 07:16:38;;;;;;;8.50;5.63;;;2.10;99.90;;;;;;5073023;28;20621;-72
2023/01/20 07:19:04;;;;;;;9.33;5.87;;;2.20;99.90;;;;;;5072794;28;20218;-73
2023/01/20 07:21:30;;;;;;;8.70;6.07;;;2.30;99.90;;;;;;5071653;28;20174;-73
2023/01/20 07:23:59;;;;;;;9.50;5.70;;;2.30;99.90;;;;;;5072928;28;20436;-74
2023/01/20 07:26:25;;;;;;;9.57;5.50;;;2.30;99.90;;;;;;5071412;28;20689;-74
2023/01/20 07:28:50;;;;;;;8.83;5.47;;;2.40;99.90;;;;;;5072853;28;21023;-74
2023/01/20 07:31:18;;;;;;;10.37;6.07;;;2.40;99.90;;;;;;5070301;28;20416;-74
2023/01/20 07:33:45;;;;;;;9.83;6.93;;;2.40;99.90;;;;;;5072910;28;20174;-74
2023/01/20 07:36:12;;;;;;;9.53;5.63;;;2.40;99.90;;;;;;5072135;28;20834;-74
2023/01/20 07:38:38;;;;;;;11.00;5.90;;;2.30;99.90;;;;;;5072386;28;20941;-74
2023/01/20 07:41:07;;;;;;;8.40;5.87;;;2.30;99.90;;;;;;5067745;28;20440;-74
2023/01/20 07:43:33;;;;;;;8.50;5.17;;;2.30;99.90;;;;;;5052555;28;20186;-74
2023/01/20 07:46:01;;;;;;;9.97;4.70;;;2.20;99.90;;;;;;5052384;28;20405;-73
2023/01/20 07:48:28;;;;;;;7.10;4.13;;;2.30;99.90;;;;;;5052342;28;20552;-72
2023/01/20 07:51:03;;;;;;;11.13;4.97;;;2.30;99.90;;;;;;5052545;28;20405;-72
2023/01/20 07:53:30;;;;;;;8.70;4.97;;;2.20;99.90;;;;;;5061628;28;20418;-74
2023/01/20 07:55:58;;;;;;;5.80;4.17;;;2.20;99.90;;;;;;5072240;28;20428;-74
2023/01/20 07:58:24;;;;;;;7.50;3.87;;;2.10;99.90;;;;;;5072366;28;20861;-74
2023/01/20 08:00:49;;;;;;;5.90;4.40;;;2.20;99.90;;;;;;5072409;28;20496;-75
2023/01/20 08:03:15;;;;;;;6.43;3.87;;;2.10;99.90;;;;;;5072385;28;20180;-75
2023/01/20 08:05:41;;;;;;;6.67;4.50;;;2.20;99.90;;;;;;5058774;28;20189;-75
2023/01/20 08:08:06;;;;;;;5.77;4.23;;;2.10;99.90;;;;;;5052277;28;20202;-75
2023/01/20 08:10:32;;;;;;;5.37;3.60;;;2.10;99.90;;;;;;5052085;28;20463;-74
2023/01/20 08:12:58;;;;;;;6.47;4.33;;;2.00;99.90;;;;;;5052265;28;20569;-73
2023/01/20 08:15:23;;;;;;;9.03;3.90;;;2.00;99.90;;;;;;5051824;28;20401;-75
2023/01/20 08:17:53;;;;;;;7.20;4.20;;;2.00;99.90;;;;;;5064062;28;20206;-75
2023/01/20 08:20:19;;;;;;;7.40;3.73;;;2.10;99.90;;;;;;5071968;28;20162;-73
2023/01/20 08:22:44;;;;;;;4.70;3.50;;;2.30;99.90;;;;;;5072213;28;20761;-74
2023/01/20 08:25:10;;;;;;;8.73;4.40;;;2.60;99.90;;;;;;5070570;28;20174;-74
2023/01/20 08:27:35;;;;;;;7.77;4.67;;;2.90;99.90;;;;;;5063185;28;20191;-72
2023/01/20 08:30:01;;;;;;;6.10;4.03;;;3.10;99.90;;;;;;5052012;28;20159;-73
2023/01/20 08:32:27;;;;;;;5.53;4.20;;;3.40;99.90;;;;;;5059332;28;20749;-74
2023/01/20 08:34:52;;;;;;;8.60;3.90;;;3.60;99.90;;;;;;5062320;28;20408;-74
2023/01/20 08:37:18;;;;;;;9.10;4.67;;;3.80;99.90;;;;;;5060259;28;20278;-74
2023/01/20 08:39:43;;;;;;;8.13;4.93;;;4.10;99.90;;;;;;5071710;28;20260;-74
2023/01/20 08:42:09;;;;;;;7.43;5.33;;;5.00;99.90;;;;;;5071688;28;20162;-74
2023/01/20 08:44:34;;;;;;;9.40;5.33;;;6.40;99.90;;;;;;5071498;28;20233;-74
2023/01/20 08:47:01;;;;;;;11.00;4.67;;;7.90;99.90;;;;;;5071628;28;20249;-71
2023/01/20 08:49:28;;;;;;;6.40;4.27;;;9.20;99.90;;;;;;5071086;28;20320;-71
2023/01/20 08:51:55;;;;;;;5.97;4.20;;;9.70;99.90;;;;;;5074830;28;20397;-73
2023/01/20 08:54:21;;;;;;;4.83;3.63;;;10.20;99.90;;;;;;5073732;28;20495;-73
2023/01/20 08:56:49;;;;;;;3.70;3.10;;;10.50;99.90;;;;;;5071530;28;20428;-71
2023/01/20 08:59:15;;;;;;;7.23;3.80;;;10.30;99.90;;;;;;5055727;28;20425;-70
2023/01/20 09:01:42;;;;;;;7.03;4.70;;;9.90;99.90;;;;;;5055816;28;20971;-70
2023/01/20 09:04:08;;;;;;;5.00;3.90;;;9.20;99.90;;;;;;5055613;28;20162;-71
2023/01/20 09:06:45;;;;;;;4.50;3.47;;;9.30;99.90;;;;;;5063219;28;20416;-72
2023/01/20 09:09:11;;;;;;;5.43;4.10;;;9.90;99.90;;;;;;5075199;28;20281;-71
2023/01/20 09:11:38;;;;;;;7.20;3.87;;;11.10;99.90;;;;;;5075718;28;20428;-71
2023/01/20 09:14:04;;;;;;;5.23;3.53;;;12.50;99.90;;;;;;5075572;28;20976;-73
2023/01/20 09:16:29;;;;;;;3.97;3.47;;;13.60;86.50;;;;;;5068043;28;20417;-72
2023/01/20 09:18:55;;;;;;;5.10;3.97;;;14.40;80.70;;;;;;5055419;28;20194;-73
2023/01/20 09:21:20;;;;;;;4.97;3.90;;;15.30;73.30;;;;;;5055251;28;20254;-73
2023/01/20 09:23:47;;;;;;;5.87;4.00;;;15.60;61.70;;;;;;5055363;28;20214;-73
2023/01/20 09:26:13;;;;;;;5.03;3.90;;;15.10;57.10;;;;;;5053710;28;20553;-72
2023/01/20 09:28:41;;;;;;;7.60;3.57;;;14.10;54.70;;;;;;5065281;28;20497;-73
2023/01/20 09:31:07;;;;;;;6.33;3.30;;;12.90;54.90;;;;;;5073772;28;20407;-71
2023/01/20 09:33:37;;;;;;;9.83;3.50;;;12.20;56.10;;;;;;5073827;28;20469;-73
2023/01/20 09:36:04;;;;;;;6.80;4.30;;;11.20;57.10;;;;;;5074750;28;20404;-73
2023/01/20 09:44:15;;;;;;;4.83;3.80;;;8.90;69.70;;;;;;5055011;28;20408;-73
2023/01/20 09:47:19;;;;;;;6.83;4.77;;;8.10;78.50;;;;;;5054895;28;20748;-72
2023/01/20 09:53:38;;;;;;;6.50;4.73;;;7.40;99.90;;;;;;5069719;28;20414;-71
2023/01/20 09:56:10;;;;;;;7.03;4.20;;;7.00;99.90;;;;;;5074411;28;20401;-70
2023/01/20 09:58:44;;;;;;;10.43;3.50;;;6.60;99.90;;;;;;5074600;28;20779;-71
2023/01/20 10:01:48;;;;;;;4.93;4.33;;;6.60;99.90;;;;;;5074514;28;20400;-72
2023/01/20 10:04:36;;;;;;;9.77;5.37;;;6.40;99.90;;;;;;5065399;28;20436;-69
2023/01/20 10:07:27;;;;;;;5.90;3.80;;;6.30;99.90;;;;;;5054391;28;20480;-71
2023/01/20 10:10:10;;;;;;;9.70;4.40;;;6.50;99.90;;;;;;5049389;28;20445;-71
2023/01/20 10:12:55;;;;;;;8.70;4.40;;;6.70;99.90;;;;;;5061595;28;20503;-72
2023/01/20 10:15:29;;;;;;;5.00;3.90;;;6.90;99.90;;;;;;5074163;28;20405;-71
2023/01/20 10:18:03;;;;;;;5.87;3.70;;;7.10;99.90;;;;;;5073980;28;20848;-71
2023/01/20 10:20:38;;;;;;;7.07;4.30;;;7.40;99.90;;;;;;5074134;28;20416;-72
2023/01/20 10:23:03;;;;;;;7.70;4.10;;;7.60;99.90;;;;;;5063321;28;20409;-72
2023/01/20 10:25:50;;;;;;;5.60;3.40;;;7.70;99.90;;;;;;5053766;28;20409;-72
2023/01/20 10:28:25;;;;;;;6.23;4.17;;;7.80;99.90;;;;;;5054066;28;20206;-73
2023/01/20 10:30:50;;;;;;;5.83;4.40;;;7.60;99.90;;;;;;5054038;28;20409;-72
2023/01/20 10:33:27;;;;;;;7.10;3.87;;;7.40;99.90;;;;;;5053932;28;20455;-72
2023/01/20 10:35:54;;;;;;;7.50;4.40;;;7.20;99.90;;;;;;5071209;28;20517;-72
2023/01/20 10:38:44;;;;;;;6.70;2.70;;;6.90;99.90;;;;;;5073787;28;20980;-72
2023/01/20 10:41:10;;;;;;;4.37;3.23;;;6.50;99.90;;;;;;5073628;28;20942;-72
2023/01/20 10:43:36;;;;;;;5.13;3.80;;;6.30;99.90;;;;;;5073906;28;20589;-71
2023/01/20 10:46:10;;;;;;;3.77;3.17;;;6.10;99.90;;;;;;5073484;28;20162;-72
2023/01/20 10:49:03;;;;;;;6.33;4.03;;;6.00;99.90;;;;;;5053704;28;20202;-72
2023/01/20 10:51:54;;;;;;;5.53;3.90;;;5.60;99.90;;;;;;5053698;28;20428;-72
2023/01/20 10:54:47;;;;;;;8.33;3.93;;;5.40;99.90;;;;;;5053387;28;20401;-71
2023/01/20 10:57:14;;;;;;;4.60;4.17;;;5.10;99.90;;;;;;5053444;28;20521;-72
2023/01/20 10:59:53;;;;;;;5.83;3.80;;;5.00;99.90;;;;;;5052568;28;20835;-72
2023/01/20 11:02:24;;;;;;;5.30;3.83;;;5.00;99.90;;;;;;5053408;28;20480;-72
2023/01/20 11:04:59;;;;;;;7.03;4.60;;;4.90;99.90;;;;;;5053154;28;20439;-72
2023/01/20 11:07:26;;;;;;;8.90;3.60;;;4.90;99.90;;;;;;5051935;28;20869;-72
2023/01/20 11:09:52;;;;;;;5.07;3.10;;;4.90;99.90;;;;;;5053396;28;20408;-73
2023/01/20 11:12:22;;;;;;;6.80;3.50;;;4.80;99.90;;;;;;5068489;28;20417;-71
2023/01/20 11:14:48;;;;;;;7.07;4.00;;;4.90;99.90;;;;;;5072550;28;20166;-71
2023/01/20 11:17:16;;;;;;;3.80;3.20;;;4.80;99.90;;;;;;5073058;28;20966;-71
2023/01/20 11:19:50;;;;;;;7.20;3.80;;;4.90;99.90;;;;;;5073008;28;20487;-73
2023/01/20 11:22:28;;;;;;;8.57;5.17;;;5.00;99.90;;;;;;5073080;28;20400;-74
2023/01/20 11:24:57;;;;;;;6.37;4.23;;;4.90;99.90;;;;;;5052841;28;20462;-74
2023/01/20 11:27:26;;;;;;;9.47;4.10;;;4.80;99.90;;;;;;5053094;28;20437;-74
2023/01/20 11:29:57;;;;;;;5.17;4.23;;;4.90;99.90;;;;;;5052831;28;20408;-72
2023/01/20 11:32:30;;;;;;;6.73;4.40;;;4.90;99.90;;;;;;5053168;28;20917;-71
2023/01/20 11:34:57;;;;;;;6.90;4.50;;;5.00;99.90;;;;;;5057100;28;20481;-72
2023/01/20 11:37:25;;;;;;;6.63;4.60;;;4.80;99.90;;;;;;5071421;28;20879;-73
2023/01/20 11:40:01;;;;;;;8.63;5.83;;;4.90;99.90;;;;;;5072562;28;20435;-71
2023/01/20 11:42:40;;;;;;;18.67;5.83;;;5.00;99.90;;;;;;5072683;28;20407;-72
2023/01/20 11:45:23;;;;;;;17.30;7.23;;;4.90;99.90;;;;;;5072292;28;20412;-72
2023/01/20 11:48:13;;;;;;;6.80;3.90;;;4.90;99.90;;;;;;5060358;28;20449;-73
2023/01/20 11:50:40;;;;;;;4.83;3.90;;;4.70;99.90;;;;;;5051295;28;20835;-72
2023/01/20 11:53:19;;;;;;;11.00;5.20;;;4.50;99.90;;;;;;5052597;28;20481;-74
2023/01/20 11:56:00;;;;;;;11.60;5.47;;;4.60;99.90;;;;;;5052117;28;20458;-73
2023/01/20 11:58:57;;;;;;;4.23;3.33;;;4.30;99.90;;;;;;5051095;28;20877;-72
2023/01/20 12:01:25;;;;;;;5.37;4.00;;;4.00;99.90;;;;;;5052413;28;20409;-71
2023/01/20 12:03:59;;;;;;;5.67;4.27;;;3.90;99.90;;;;;;5052349;28;20398;-71
2023/01/20 12:06:33;;;;;;;4.60;4.17;;;3.90;99.90;;;;;;5052100;28;20409;-74
2023/01/20 12:09:08;;;;;;;11.20;5.07;;;4.00;99.90;;;;;;5052150;28;20506;-73
2023/01/20 12:11:40;;;;;;;8.97;5.30;;;4.00;99.90;;;;;;5061955;28;20408;-72
2023/01/20 12:14:40;;;;;;;7.77;4.43;;;3.90;99.90;;;;;;5072170;28;20397;-72
2023/01/20 12:17:16;;;;;;;6.47;3.40;;;4.00;99.90;;;;;;5072016;28;20400;-72
2023/01/20 12:20:04;;;;;;;6.23;3.60;;;3.90;99.90;;;;;;5072086;28;20774;-73
2023/01/20 12:23:08;;;;;;;3.90;3.50;;;3.80;99.90;;;;;;5072118;28;20408;-72
2023/01/20 12:25:47;;;;;;;5.23;3.23;;;3.60;99.90;;;;;;5035326;28;20451;-73
2023/01/20 12:28:32;;;;;;;4.03;3.63;;;3.60;99.90;;;;;;5051726;28;20451;-73
2023/01/20 12:31:00;;;;;;;8.03;3.70;;;3.40;99.90;;;;;;5051930;28;20484;-72
2023/01/20 12:33:33;;;;;;;9.30;4.03;;;3.40;99.90;;;;;;5051845;28;20443;-72
2023/01/20 12:36:40;;;;;;;6.43;4.33;;;3.40;99.90;;;;;;5062824;28;20440;-72
2023/01/20 12:39:43;;;;;;;7.30;3.20;;;3.50;99.90;;;;;;5057345;28;20485;-72
2023/01/20 12:42:09;;;;;;;3.83;3.43;;;3.40;99.90;;;;;;5070608;28;20412;-72
2023/01/20 12:44:55;;;;;;;3.60;2.63;;;3.40;99.90;;;;;;5071611;28;20392;-71
2023/01/20 12:47:51;;;;;;;3.03;2.70;;;3.40;99.90;;;;;;5063271;28;20324;-72
2023/01/20 12:50:51;;;;;;;3.10;2.80;;;3.20;99.90;;;;;;5051822;28;20396;-71
2023/01/20 12:53:47;;;;;;;4.30;3.10;;;3.30;99.90;;;;;;5050516;28;20432;-72
2023/01/20 12:56:42;;;;;;;6.13;3.17;;;3.40;99.90;;;;;;5051531;28;20429;-71
2023/01/20 12:59:44;;;;;;;5.13;3.53;;;3.30;99.90;;;;;;5051973;28;20520;-71
2023/01/20 13:02:21;;;;;;;7.80;2.87;;;3.30;99.90;;;;;;5051703;28;20401;-72
2023/01/20 13:04:57;;;;;;;4.17;2.90;;;3.30;99.90;;;;;;5051229;28;20436;-72
2023/01/20 13:07:40;;;;;;;4.57;4.00;;;3.20;99.90;;;;;;5051627;28;20976;-72
2023/01/20 13:10:06;;;;;;;4.83;3.37;;;3.30;99.90;;;;;;5052625;28;20897;-71
2023/01/20 13:12:53;;;;;;;5.13;3.00;;;3.10;99.90;;;;;;5071524;28;20487;-73
2023/01/20 13:15:31;;;;;;;6.60;4.43;;;3.10;99.90;;;;;;5069978;28;20174;-72
2023/01/20 13:18:06;;;;;;;4.33;3.30;;;3.10;99.90;;;;;;5071445;28;20462;-70
2023/01/20 13:20:33;;;;;;;4.03;3.20;;;3.10;99.90;;;;;;5056936;28;20447;-71